createdAt,value
2022-10-23T00:01:36.215Z,11.96
2022-10-23T00:04:14.649Z,12.01
2022-10-23T00:06:42.649Z,12.19
2022-10-23T00:09:12.601Z,12.25
2022-10-23T00:11:41.482Z,12.12
2022-10-23T00:14:08.843Z,12.06
2022-10-23T00:16:35.985Z,11.91
2022-10-23T00:19:03.609Z,12.08
2022-10-23T00:21:30.414Z,12.07
2022-10-23T00:23:57.317Z,12.02
2022-10-23T00:26:24.385Z,12.14
2022-10-23T00:28:53.198Z,11.98
2022-10-23T00:31:21.640Z,11.96
2022-10-23T00:33:48.987Z,11.84
2022-10-23T00:36:18.047Z,11.76
2022-10-23T00:38:45.947Z,11.70
2022-10-23T00:41:23.371Z,11.54
2022-10-23T00:44:10.799Z,11.55
2022-10-23T00:46:39.095Z,11.64
2022-10-23T00:49:07.318Z,11.53
2022-10-23T00:51:45.040Z,11.55
2022-10-23T00:54:29.407Z,11.76
2022-10-23T00:57:02.605Z,11.76
2022-10-23T00:59:30.242Z,11.90
2022-10-23T01:01:57.779Z,11.71
2022-10-23T01:04:27.942Z,11.80
2022-10-23T01:07:10.147Z,11.78
2022-10-23T01:09:46.856Z,11.70
2022-10-23T01:12:26.588Z,11.57
2022-10-23T01:15:35.240Z,11.71
2022-10-23T01:18:16.631Z,11.83
2022-10-23T01:21:10.275Z,11.80
2022-10-23T01:23:55.525Z,11.82
2022-10-23T01:26:55.686Z,11.86
2022-10-23T01:29:35.584Z,11.90
2022-10-23T01:32:35.645Z,11.86
2022-10-23T01:35:11.787Z,11.84
2022-10-23T01:37:46.767Z,11.63
2022-10-23T01:40:29.370Z,11.44
2022-10-23T01:43:02.349Z,11.45
2022-10-23T01:45:53.388Z,11.51
2022-10-23T01:48:27.490Z,11.36
2022-10-23T01:50:58.149Z,11.37
2022-10-23T01:53:27.995Z,11.64
2022-10-23T01:55:55.877Z,11.81
2022-10-23T01:58:27.078Z,11.94
2022-10-23T02:00:58.917Z,11.80
2022-10-23T02:03:30.389Z,11.78
2022-10-23T02:05:58.110Z,11.88
2022-10-23T02:08:27.902Z,11.76
2022-10-23T02:11:11.510Z,11.31
2022-10-23T02:13:45.526Z,11.23
2022-10-23T02:16:39.372Z,11.19
2022-10-23T02:19:27.003Z,11.19
2022-10-23T02:22:28.825Z,11.23
2022-10-23T02:25:05.883Z,11.15
2022-10-23T02:27:42.397Z,10.88
2022-10-23T02:30:13.031Z,10.97
2022-10-23T02:32:46.587Z,11.13
2022-10-23T02:35:14.147Z,11.10
2022-10-23T02:37:41.513Z,11.15
2022-10-23T02:40:09.937Z,11.32
2022-10-23T02:42:50.039Z,11.39
2022-10-23T02:45:33.839Z,11.39
2022-10-23T02:48:12.393Z,11.53
2022-10-23T02:51:03.077Z,11.61
2022-10-23T02:53:43.043Z,11.58
2022-10-23T02:56:55.620Z,11.58
2022-10-23T02:59:44.175Z,11.76
2022-10-23T03:02:26.151Z,11.72
2022-10-23T03:04:56.122Z,11.80
2022-10-23T03:07:25.807Z,11.68
2022-10-23T03:10:02.098Z,11.52
2022-10-23T03:12:30.751Z,11.42
2022-10-23T03:14:59.093Z,11.48
2022-10-23T03:17:26.024Z,11.49
2022-10-23T03:19:56.113Z,11.51
2022-10-23T03:22:23.126Z,11.48
2022-10-23T03:24:49.909Z,11.42
2022-10-23T03:27:16.797Z,11.22
2022-10-23T03:29:43.732Z,11.29
2022-10-23T03:32:10.633Z,11.34
2022-10-23T03:34:38.105Z,11.25
2022-10-23T03:37:05.169Z,11.33
2022-10-23T03:39:32.093Z,11.39
2022-10-23T03:41:58.919Z,11.45
2022-10-23T03:44:26.057Z,11.24
2022-10-23T03:46:53.066Z,11.26
2022-10-23T03:49:21.150Z,11.50
2022-10-23T03:51:52.216Z,11.50
2022-10-23T03:54:25.798Z,11.34
2022-10-23T03:56:56.649Z,11.20
2022-10-23T03:59:26.063Z,11.28
2022-10-23T04:01:53.469Z,11.26
2022-10-23T04:04:20.393Z,11.19
2022-10-23T04:06:47.895Z,11.07
2022-10-23T04:09:14.863Z,11.24
2022-10-23T04:11:43.847Z,11.15
2022-10-23T04:14:13.308Z,11.23
2022-10-23T04:16:40.583Z,11.13
2022-10-23T04:19:07.458Z,11.10
2022-10-23T04:21:34.422Z,10.78
2022-10-23T04:24:01.482Z,10.91
2022-10-23T04:26:28.503Z,10.77
2022-10-23T04:28:55.297Z,10.97
2022-10-23T04:31:22.111Z,10.96
2022-10-23T04:33:49.583Z,10.58
2022-10-23T04:36:32.146Z,10.81
2022-10-23T04:39:06.861Z,10.87
2022-10-23T04:41:33.821Z,11.00
2022-10-23T04:44:00.824Z,10.84
2022-10-23T04:46:28.384Z,10.75
2022-10-23T04:48:55.206Z,10.68
2022-10-23T04:51:40.548Z,10.61
2022-10-23T04:54:24.783Z,10.78
2022-10-23T04:57:01.157Z,10.77
2022-10-23T04:59:37.009Z,10.53
2022-10-23T05:02:04.283Z,10.75
2022-10-23T05:04:31.451Z,10.78
2022-10-23T05:07:17.034Z,10.80
2022-10-23T05:10:10.250Z,10.70
2022-10-23T05:12:47.707Z,10.65
2022-10-23T05:15:14.930Z,10.89
2022-10-23T05:17:46.935Z,11.42
2022-10-23T05:20:21.798Z,11.58
2022-10-23T05:22:52.548Z,11.61
2022-10-23T05:25:24.092Z,11.91
2022-10-23T05:27:59.149Z,11.70
2022-10-23T05:30:26.345Z,11.49
2022-10-23T05:32:54.359Z,11.60
2022-10-23T05:35:24.546Z,11.63
2022-10-23T05:37:54.536Z,11.86
2022-10-23T05:40:24.284Z,12.33
2022-10-23T05:42:57.331Z,12.85
2022-10-23T05:45:47.355Z,13.18
2022-10-23T05:48:52.930Z,13.16
2022-10-23T05:51:23.113Z,12.96
2022-10-23T05:54:11.147Z,12.67
2022-10-23T05:56:46.799Z,12.54
2022-10-23T05:59:23.175Z,13.06
2022-10-23T06:02:19.913Z,14.20
2022-10-23T06:04:53.028Z,14.81
2022-10-23T06:07:32.441Z,15.50
2022-10-23T06:10:06.180Z,15.87
2022-10-23T06:12:36.179Z,16.55
2022-10-23T06:15:04.003Z,17.34
2022-10-23T06:17:50.760Z,17.58
2022-10-23T06:20:17.954Z,17.64
2022-10-23T06:22:53.037Z,17.92
2022-10-23T06:25:41.562Z,17.92
2022-10-23T06:28:08.655Z,17.89
2022-10-23T06:30:39.313Z,17.93
2022-10-23T06:33:06.640Z,18.07
2022-10-23T06:35:33.881Z,18.56
2022-10-23T06:38:01.277Z,18.60
2022-10-23T06:40:37.958Z,18.83
2022-10-23T06:43:08.633Z,19.07
2022-10-23T06:46:02.169Z,19.58
2022-10-23T06:49:04.332Z,19.88
2022-10-23T06:51:35.820Z,20.18
2022-10-23T06:54:04.203Z,20.48
2022-10-23T06:57:00.339Z,20.84
2022-10-23T06:59:41.050Z,21.06
2022-10-23T07:02:10.068Z,21.09
2022-10-23T07:04:39.778Z,21.24
2022-10-23T07:07:12.263Z,21.42
2022-10-23T07:09:45.125Z,21.69
2022-10-23T07:12:21.474Z,21.45
2022-10-23T07:14:54.545Z,21.66
2022-10-23T07:17:21.930Z,21.54
2022-10-23T07:19:48.773Z,21.61
2022-10-23T07:22:16.160Z,21.47
2022-10-23T07:25:05.304Z,21.48
2022-10-23T07:27:38.424Z,21.37
2022-10-23T07:30:08.292Z,21.24
2022-10-23T07:32:43.960Z,21.21
2022-10-23T07:35:29.465Z,21.23
2022-10-23T07:38:09.453Z,21.44
2022-10-23T07:40:41.020Z,21.80
2022-10-23T07:43:09.996Z,21.91
2022-10-23T07:45:37.284Z,22.17
2022-10-23T07:48:14.471Z,22.27
2022-10-23T07:51:03.606Z,22.25
2022-10-23T07:53:31.294Z,22.25
2022-10-23T07:56:14.564Z,22.24
2022-10-23T07:59:19.564Z,22.38
2022-10-23T08:01:55.831Z,22.54
2022-10-23T08:04:27.691Z,22.57
2022-10-23T08:07:01.174Z,22.63
2022-10-23T08:09:31.379Z,22.42
2022-10-23T08:11:58.255Z,22.56
2022-10-23T08:14:28.686Z,23.07
2022-10-23T08:16:55.869Z,22.91
2022-10-23T08:19:46.492Z,23.07
2022-10-23T08:22:14.786Z,22.96
2022-10-23T08:24:41.796Z,23.00
2022-10-23T08:27:08.753Z,23.05
2022-10-23T08:29:41.955Z,23.04
2022-10-23T08:32:09.244Z,22.79
2022-10-23T08:34:47.786Z,22.44
2022-10-23T08:37:14.674Z,22.56
2022-10-23T08:39:41.659Z,22.36
2022-10-23T08:42:25.593Z,22.60
2022-10-23T08:45:03.744Z,23.04
2022-10-23T08:47:41.069Z,23.29
2022-10-23T08:50:25.531Z,23.52
2022-10-23T08:53:01.063Z,23.65
2022-10-23T08:55:35.927Z,23.81
2022-10-23T08:58:25.717Z,24.20
2022-10-23T09:00:52.692Z,24.22
2022-10-23T09:03:19.854Z,24.36
2022-10-23T09:06:01.932Z,24.46
2022-10-23T09:08:53.372Z,24.57
2022-10-23T09:11:38.607Z,24.61
2022-10-23T09:14:27.772Z,24.87
2022-10-23T09:19:47.010Z,24.95
2022-10-23T09:22:14.100Z,25.10
2022-10-23T09:24:43.710Z,25.21
2022-10-23T09:27:16.879Z,25.32
2022-10-23T09:29:55.220Z,25.19
2022-10-23T09:32:37.630Z,25.17
2022-10-23T09:35:05.814Z,25.38
2022-10-23T09:37:35.960Z,25.36
2022-10-23T09:40:12.337Z,25.39
2022-10-23T09:42:52.889Z,25.27
2022-10-23T09:45:56.076Z,25.30
2022-10-23T09:48:23.035Z,25.16
2022-10-23T09:50:54.393Z,25.30
2022-10-23T09:53:38.515Z,25.31
2022-10-23T09:56:24.817Z,25.48
2022-10-23T09:58:59.075Z,25.53
2022-10-23T10:01:29.524Z,25.63
2022-10-23T10:04:09.647Z,25.47
2022-10-23T10:06:36.779Z,25.49
2022-10-23T10:09:13.498Z,25.63
2022-10-23T10:11:46.354Z,25.71
2022-10-23T10:14:30.224Z,25.66
2022-10-23T10:16:59.704Z,25.61
2022-10-23T10:20:05.238Z,25.70
2022-10-23T10:22:53.054Z,25.60
2022-10-23T10:25:47.451Z,25.66
2022-10-23T10:28:38.163Z,25.66
2022-10-23T10:31:16.936Z,25.67
2022-10-23T10:33:49.753Z,25.70
2022-10-23T10:36:48.201Z,25.86
2022-10-23T10:39:47.000Z,26.03
2022-10-23T10:42:27.144Z,25.96
2022-10-23T10:45:23.500Z,26.00
2022-10-23T10:48:27.647Z,26.11
2022-10-23T10:51:24.296Z,26.06
2022-10-23T10:54:27.934Z,26.13
2022-10-23T10:56:58.396Z,26.33
2022-10-23T10:59:30.600Z,26.32
2022-10-23T11:02:41.569Z,25.86
2022-10-23T11:05:23.721Z,25.87
2022-10-23T11:08:00.362Z,25.96
2022-10-23T11:10:29.080Z,25.75
2022-10-23T11:12:56.987Z,25.41
2022-10-23T11:15:38.908Z,25.35
2022-10-23T11:18:14.104Z,25.69
2022-10-23T11:21:11.940Z,26.00
2022-10-23T11:24:03.819Z,25.91
2022-10-23T11:27:00.004Z,26.10
2022-10-23T11:29:44.862Z,26.29
2022-10-23T11:35:06.094Z,26.08
2022-10-23T11:37:33.341Z,26.09
2022-10-23T11:40:09.409Z,26.21
2022-10-23T11:42:39.329Z,26.11
2022-10-23T11:45:36.147Z,26.07
2022-10-23T11:48:21.055Z,26.09
2022-10-23T11:50:47.824Z,26.15
2022-10-23T11:53:33.069Z,26.16
2022-10-23T11:56:12.089Z,26.45
2022-10-23T11:58:51.221Z,26.57
2022-10-23T12:01:30.480Z,26.66
2022-10-23T12:04:12.558Z,26.55
2022-10-23T12:06:42.760Z,26.52
2022-10-23T12:09:25.859Z,26.64
2022-10-23T12:12:07.700Z,26.74
2022-10-23T12:14:45.976Z,26.65
2022-10-23T12:17:36.027Z,26.67
2022-10-23T12:20:08.771Z,26.83
2022-10-23T12:22:44.578Z,26.72
2022-10-23T12:25:17.054Z,26.81
2022-10-23T12:28:03.923Z,27.04
2022-10-23T12:30:42.227Z,27.10
2022-10-23T12:33:32.047Z,27.17
2022-10-23T12:36:20.373Z,27.27
2022-10-23T12:38:49.932Z,27.15
2022-10-23T12:41:23.197Z,27.20
2022-10-23T12:43:55.104Z,27.09
2022-10-23T12:46:34.812Z,27.04
2022-10-23T12:49:12.810Z,27.11
2022-10-23T12:51:39.648Z,27.25
2022-10-23T12:54:18.338Z,27.08
2022-10-23T12:56:46.070Z,27.03
2022-10-23T12:59:28.244Z,26.71
2022-10-23T13:01:56.196Z,26.64
2022-10-23T13:04:26.817Z,26.41
2022-10-23T13:06:56.258Z,26.40
2022-10-23T13:09:36.146Z,26.50
2022-10-23T13:12:18.644Z,26.60
2022-10-23T13:15:08.817Z,26.48
2022-10-23T13:17:44.669Z,26.65
2022-10-23T13:20:22.809Z,26.62
2022-10-23T13:22:57.690Z,26.59
2022-10-23T13:25:28.908Z,26.56
2022-10-23T13:28:07.996Z,26.37
2022-10-23T13:30:38.773Z,26.07
2022-10-23T13:33:21.140Z,26.03
2022-10-23T13:36:04.812Z,25.99
2022-10-23T13:38:37.557Z,25.90
2022-10-23T13:41:15.061Z,25.92
2022-10-23T13:43:42.851Z,25.73
2022-10-23T13:46:14.861Z,25.63
2022-10-23T13:48:42.122Z,25.63
2022-10-23T13:51:20.642Z,25.62
2022-10-23T13:53:47.941Z,25.62
2022-10-23T13:56:17.172Z,25.42
2022-10-23T13:58:44.085Z,25.32
2022-10-23T14:01:23.237Z,25.50
2022-10-23T14:03:51.322Z,25.50
2022-10-23T14:06:18.349Z,25.42
2022-10-23T14:08:45.920Z,25.48
2022-10-23T14:13:46.414Z,25.19
2022-10-23T14:16:15.474Z,25.19
2022-10-23T14:18:42.864Z,25.05
2022-10-23T14:21:12.449Z,25.06
2022-10-23T14:23:39.774Z,24.81
2022-10-23T14:26:13.069Z,24.49
2022-10-23T14:28:40.156Z,24.13
2022-10-23T14:31:15.425Z,23.95
2022-10-23T14:33:43.442Z,23.91
2022-10-23T14:36:10.662Z,23.95
2022-10-23T14:38:37.756Z,23.83
2022-10-23T14:41:11.709Z,23.68
2022-10-23T14:43:38.850Z,23.60
2022-10-23T14:46:17.356Z,23.49
2022-10-23T14:48:46.201Z,23.38
2022-10-23T14:51:23.884Z,23.36
2022-10-23T14:53:58.827Z,23.28
2022-10-23T14:56:26.280Z,23.08
2022-10-23T14:58:53.118Z,22.92
2022-10-23T15:01:20.248Z,22.73
2022-10-23T15:03:48.636Z,22.61
2022-10-23T15:06:18.269Z,22.35
2022-10-23T15:08:45.445Z,22.25
2022-10-23T15:11:12.806Z,22.17
2022-10-23T15:13:39.769Z,22.12
2022-10-23T15:16:10.266Z,21.99
2022-10-23T15:21:06.893Z,21.87
2022-10-23T15:23:39.155Z,21.80
2022-10-23T15:26:09.458Z,21.84
2022-10-23T15:28:36.295Z,21.74
2022-10-23T15:31:03.222Z,21.65
2022-10-23T15:33:30.170Z,21.64
2022-10-23T15:35:56.998Z,21.62
2022-10-23T15:38:24.571Z,21.48
2022-10-23T15:40:58.574Z,21.37
2022-10-23T15:43:25.466Z,21.40
2022-10-23T15:45:52.281Z,21.39
2022-10-23T15:48:19.432Z,21.37
2022-10-23T15:50:46.269Z,21.32
2022-10-23T15:53:13.251Z,21.31
2022-10-23T15:55:40.044Z,21.16
2022-10-23T15:58:06.962Z,21.18
2022-10-23T16:00:36.353Z,21.11
2022-10-23T16:03:03.424Z,21.03
2022-10-23T16:05:30.499Z,20.88
2022-10-23T16:07:57.417Z,20.92
2022-10-23T16:10:25.037Z,20.80
2022-10-23T16:12:51.954Z,20.76
2022-10-23T16:15:18.784Z,20.76
2022-10-23T16:17:45.888Z,20.75
2022-10-23T16:20:12.892Z,20.74
2022-10-23T16:22:42.680Z,20.65
2022-10-23T16:25:11.885Z,20.58
2022-10-23T16:27:39.002Z,20.70
2022-10-23T16:30:09.079Z,20.66
2022-10-23T16:32:36.605Z,20.57
2022-10-23T16:35:03.713Z,20.48
2022-10-23T16:37:40.398Z,20.35
2022-10-23T16:40:13.577Z,20.25
2022-10-23T16:42:58.939Z,20.16
2022-10-23T16:45:44.233Z,20.06
2022-10-23T16:48:11.447Z,19.94
2022-10-23T16:53:12.089Z,19.93
2022-10-23T16:55:40.973Z,19.91
2022-10-23T16:58:07.787Z,19.92
2022-10-23T17:00:37.724Z,19.69
2022-10-23T17:03:05.462Z,19.72
2022-10-23T17:05:35.781Z,19.70
2022-10-23T17:08:02.622Z,19.52
2022-10-23T17:10:29.487Z,19.54
2022-10-23T17:12:56.334Z,19.54
2022-10-23T17:15:23.971Z,19.44
2022-10-23T17:17:50.989Z,19.47
2022-10-23T17:20:18.180Z,19.41
2022-10-23T17:22:44.989Z,19.56
2022-10-23T17:25:12.693Z,19.81
2022-10-23T17:27:39.731Z,19.82
2022-10-23T17:30:10.413Z,19.85
2022-10-23T17:32:39.339Z,19.89
2022-10-23T17:35:07.085Z,19.82
2022-10-23T17:37:33.955Z,19.84
2022-10-23T17:40:02.633Z,19.61
2022-10-23T17:42:29.702Z,19.58
2022-10-23T17:44:56.641Z,19.51
2022-10-23T17:47:23.525Z,19.51
2022-10-23T17:49:50.397Z,19.45
2022-10-23T17:52:17.435Z,19.24
2022-10-23T17:54:44.286Z,18.94
2022-10-23T17:57:11.466Z,18.99
2022-10-23T17:59:39.186Z,18.74
2022-10-23T18:02:07.250Z,18.82
2022-10-23T18:04:34.840Z,18.83
2022-10-23T18:07:01.715Z,18.64
2022-10-23T18:09:28.590Z,18.53
2022-10-23T18:11:55.571Z,18.54
2022-10-23T18:14:23.540Z,18.49
2022-10-23T18:16:52.568Z,18.10
2022-10-23T18:19:19.613Z,18.33
2022-10-23T18:21:47.860Z,18.44
2022-10-23T18:24:15.641Z,18.30
2022-10-23T18:26:42.660Z,18.13
2022-10-23T18:29:11.997Z,18.36
2022-10-23T18:31:39.426Z,18.43
2022-10-23T18:34:09.398Z,18.44
2022-10-23T18:36:40.804Z,18.39
2022-10-23T18:39:12.004Z,18.38
2022-10-23T18:41:41.510Z,18.30
2022-10-23T18:44:09.829Z,18.35
2022-10-23T18:46:37.129Z,18.29
2022-10-23T18:49:04.775Z,18.21
2022-10-23T18:51:35.085Z,18.24
2022-10-23T18:54:05.083Z,18.30
2022-10-23T18:56:34.137Z,18.32
2022-10-23T18:59:03.171Z,18.29
2022-10-23T19:01:30.771Z,18.20
2022-10-23T19:03:59.544Z,18.23
2022-10-23T19:06:27.189Z,18.16
2022-10-23T19:08:54.705Z,18.04
2022-10-23T19:11:23.663Z,18.13
2022-10-23T19:13:50.561Z,18.27
2022-10-23T19:16:33.383Z,18.29
2022-10-23T19:19:28.520Z,18.02
2022-10-23T19:21:56.605Z,18.02
2022-10-23T19:24:29.608Z,18.03
2022-10-23T19:27:00.321Z,18.16
2022-10-23T19:29:27.796Z,18.23
2022-10-23T19:31:55.065Z,18.43
2022-10-23T19:34:25.107Z,18.41
2022-10-23T19:36:53.761Z,18.32
2022-10-23T19:39:20.883Z,18.32
2022-10-23T19:41:48.222Z,18.26
2022-10-23T19:44:15.356Z,18.32
2022-10-23T19:46:42.176Z,18.17
2022-10-23T19:49:09.203Z,18.13
2022-10-23T19:51:36.931Z,18.03
2022-10-23T19:54:04.221Z,17.96
2022-10-23T19:56:31.116Z,18.02
2022-10-23T19:58:57.944Z,17.86
2022-10-23T20:01:25.892Z,17.77
2022-10-23T20:03:53.206Z,17.59
2022-10-23T20:06:23.408Z,17.61
2022-10-23T20:08:50.333Z,17.64
2022-10-23T20:11:23.336Z,17.44
2022-10-23T20:13:51.631Z,17.28
2022-10-23T20:16:30.207Z,17.16
2022-10-23T20:18:57.720Z,17.20
2022-10-23T20:21:25.097Z,17.13
2022-10-23T20:23:52.635Z,16.89
2022-10-23T20:26:23.646Z,16.96
2022-10-23T20:28:53.855Z,16.77
2022-10-23T20:31:23.114Z,16.54
2022-10-23T20:33:50.773Z,16.55
2022-10-23T20:36:34.011Z,16.54
2022-10-23T20:39:10.027Z,16.60
2022-10-23T20:41:37.563Z,16.32
2022-10-23T20:44:11.576Z,16.34
2022-10-23T20:46:38.997Z,16.39
2022-10-23T20:49:05.956Z,16.38
2022-10-23T20:51:32.877Z,16.37
2022-10-23T20:53:59.694Z,16.54
2022-10-23T20:56:32.550Z,16.34
2022-10-23T20:59:05.185Z,16.35
2022-10-23T21:01:32.803Z,16.13
2022-10-23T21:04:01.466Z,16.22
2022-10-23T21:06:41.056Z,16.11
2022-10-23T21:09:17.179Z,16.04
2022-10-23T21:11:44.021Z,15.95
2022-10-23T21:14:11.008Z,15.80
2022-10-23T21:16:40.874Z,16.06
2022-10-23T21:19:09.082Z,15.99
2022-10-23T21:21:36.170Z,15.98
2022-10-23T21:24:06.801Z,15.81
2022-10-23T21:26:34.169Z,15.76
2022-10-23T21:29:17.408Z,15.87
2022-10-23T21:31:45.669Z,15.54
2022-10-23T21:34:12.587Z,15.63
2022-10-23T21:36:48.528Z,15.48
2022-10-23T21:39:26.335Z,15.57
2022-10-23T21:41:53.125Z,15.36
2022-10-23T21:44:19.959Z,15.43
2022-10-23T21:46:47.122Z,15.52
2022-10-23T21:49:13.994Z,14.65
2022-10-23T21:51:41.051Z,14.62
2022-10-23T21:54:10.903Z,14.52
2022-10-23T21:56:41.925Z,14.66
2022-10-23T21:59:13.440Z,14.75
2022-10-23T22:01:43.281Z,14.81
2022-10-23T22:04:15.027Z,14.84
2022-10-23T22:06:42.868Z,14.93
2022-10-23T22:09:11.545Z,14.87
2022-10-23T22:11:38.896Z,14.74
2022-10-23T22:14:05.744Z,14.75
2022-10-23T22:16:32.711Z,14.78
2022-10-23T22:18:59.603Z,14.96
2022-10-23T22:21:28.838Z,14.84
2022-10-23T22:23:57.889Z,14.44
2022-10-23T22:26:29.407Z,14.40
2022-10-23T22:28:59.041Z,14.62
2022-10-23T22:31:29.107Z,14.85
2022-10-23T22:33:57.013Z,14.98
2022-10-23T22:36:25.388Z,14.88
2022-10-23T22:38:52.480Z,14.82
2022-10-23T22:41:19.739Z,14.86
2022-10-23T22:43:46.702Z,14.79
2022-10-23T22:46:16.618Z,15.06
2022-10-23T22:48:44.480Z,14.88
2022-10-23T22:51:13.469Z,14.63
2022-10-23T22:53:40.656Z,14.56
2022-10-23T22:56:09.473Z,14.59
2022-10-23T22:58:36.897Z,14.61
2022-10-23T23:01:15.064Z,14.71
2022-10-23T23:03:43.106Z,14.65
2022-10-23T23:06:11.194Z,14.67
2022-10-23T23:08:40.337Z,14.88
2022-10-23T23:11:09.312Z,14.85
2022-10-23T23:13:36.633Z,14.74
2022-10-23T23:16:04.307Z,14.65
2022-10-23T23:18:31.819Z,14.44
2022-10-23T23:21:03.321Z,14.23
2022-10-23T23:23:30.377Z,14.21
2022-10-23T23:25:57.534Z,14.24
2022-10-23T23:28:24.672Z,14.36
2022-10-23T23:31:03.654Z,14.21
2022-10-23T23:33:30.509Z,14.45
2022-10-23T23:35:57.462Z,14.44
2022-10-23T23:38:24.278Z,14.57
2022-10-23T23:40:52.862Z,14.51
2022-10-23T23:43:20.245Z,14.16
2022-10-23T23:45:47.207Z,14.09
2022-10-23T23:48:14.053Z,13.86
2022-10-23T23:50:41.623Z,13.79
2022-10-23T23:53:08.514Z,13.74
2022-10-23T23:55:35.485Z,13.75
2022-10-23T23:58:02.511Z,13.68
